createdAt,value
2022-12-29T00:00:52.268Z,1.65
2022-12-29T00:01:58.593Z,1.74
2022-12-29T00:03:03.918Z,1.66
2022-12-29T00:04:12.924Z,1.75
2022-12-29T00:05:17.825Z,1.69
2022-12-29T00:06:20.386Z,1.80
2022-12-29T00:07:24.518Z,1.59
2022-12-29T00:08:41.837Z,1.54
2022-12-29T00:09:47.758Z,1.60
2022-12-29T00:10:52.176Z,1.64
2022-12-29T00:11:54.380Z,1.69
2022-12-29T00:13:15.895Z,1.71
2022-12-29T00:14:36.893Z,1.74
2022-12-29T00:15:50.105Z,1.63
2022-12-29T00:17:31.131Z,1.52
2022-12-29T00:18:44.665Z,1.50
2022-12-29T00:20:09.040Z,1.43
2022-12-29T00:21:36.081Z,1.44
2022-12-29T00:22:59.057Z,1.55
2022-12-29T00:24:20.734Z,1.52
2022-12-29T00:25:48.317Z,1.53
2022-12-29T00:27:26.182Z,1.46
2022-12-29T00:28:49.133Z,1.44
2022-12-29T00:30:22.388Z,1.39
2022-12-29T00:31:44.302Z,1.41
2022-12-29T00:33:16.004Z,1.43
2022-12-29T00:34:41.624Z,1.46
2022-12-29T00:35:47.409Z,1.45
2022-12-29T00:36:54.500Z,1.38
2022-12-29T00:38:20.917Z,1.37
2022-12-29T00:39:45.965Z,1.27
2022-12-29T00:41:09.956Z,1.40
2022-12-29T00:42:37.798Z,1.29
2022-12-29T00:44:05.522Z,1.33
2022-12-29T00:45:28.142Z,1.45
2022-12-29T00:46:40.574Z,1.51
2022-12-29T00:47:47.091Z,1.50
2022-12-29T00:49:11.482Z,1.50
2022-12-29T00:50:17.726Z,1.47
2022-12-29T00:51:27.169Z,1.47
2022-12-29T00:52:33.230Z,1.59
2022-12-29T00:53:41.561Z,1.52
2022-12-29T00:54:59.374Z,1.43
2022-12-29T00:56:11.779Z,1.33
2022-12-29T00:57:23.629Z,1.17
2022-12-29T00:58:30.788Z,1.17
2022-12-29T00:59:42.130Z,1.32
2022-12-29T01:00:46.678Z,1.41
2022-12-29T01:01:55.875Z,1.36
2022-12-29T01:03:03.052Z,1.36
2022-12-29T01:04:11.773Z,1.33
2022-12-29T01:05:42.676Z,1.41
2022-12-29T01:06:49.942Z,1.25
2022-12-29T01:07:59.642Z,1.40
2022-12-29T01:10:03.419Z,1.42
2022-12-29T01:11:13.713Z,1.20
2022-12-29T01:12:51.136Z,1.22
2022-12-29T01:13:56.679Z,1.12
2022-12-29T01:15:07.561Z,1.23
2022-12-29T01:16:13.086Z,1.03
2022-12-29T01:17:29.777Z,1.08
2022-12-29T01:18:38.623Z,1.12
2022-12-29T01:19:47.898Z,1.04
2022-12-29T01:20:52.222Z,1.15
2022-12-29T01:22:06.458Z,1.10
2022-12-29T01:23:14.694Z,0.93
2022-12-29T01:24:21.976Z,1.01
2022-12-29T01:25:34.888Z,0.98
2022-12-29T01:26:39.004Z,1.03
2022-12-29T01:27:53.626Z,1.08
2022-12-29T01:28:58.040Z,1.15
2022-12-29T01:30:00.496Z,1.15
2022-12-29T01:31:04.644Z,1.13
2022-12-29T01:32:13.621Z,0.99
2022-12-29T01:33:18.388Z,1.03
2022-12-29T01:34:23.921Z,1.02
2022-12-29T01:35:34.979Z,1.15
2022-12-29T01:36:40.325Z,1.21
2022-12-29T01:37:44.766Z,1.24
2022-12-29T01:38:51.099Z,1.24
2022-12-29T01:40:15.182Z,1.35
2022-12-29T01:41:20.832Z,1.10
2022-12-29T01:42:37.241Z,1.17
2022-12-29T01:43:51.240Z,1.19
2022-12-29T01:45:01.942Z,1.17
2022-12-29T01:46:13.610Z,1.21
2022-12-29T01:47:42.645Z,1.18
2022-12-29T01:48:48.672Z,1.09
2022-12-29T01:49:57.686Z,1.05
2022-12-29T01:51:08.019Z,1.08
2022-12-29T01:52:12.428Z,1.14
2022-12-29T01:53:31.973Z,1.08
2022-12-29T01:54:55.206Z,1.04
2022-12-29T01:56:07.868Z,1.08
2022-12-29T01:57:20.510Z,0.95
2022-12-29T01:58:44.619Z,1.00
2022-12-29T01:59:57.802Z,0.97
2022-12-29T02:02:33.731Z,0.96
2022-12-29T02:03:40.910Z,0.83
2022-12-29T02:04:50.380Z,0.93
2022-12-29T02:06:15.525Z,0.88
2022-12-29T02:07:26.128Z,1.01
2022-12-29T02:08:31.618Z,0.62
2022-12-29T02:11:02.187Z,0.79
2022-12-29T02:12:16.160Z,0.82
2022-12-29T02:13:25.452Z,0.85
2022-12-29T02:15:01.441Z,0.82
2022-12-29T02:16:27.865Z,0.80
2022-12-29T02:18:00.311Z,0.85
2022-12-29T02:19:10.611Z,0.80
2022-12-29T02:20:30.685Z,0.80
2022-12-29T02:21:57.968Z,0.72
2022-12-29T02:23:07.538Z,0.62
2022-12-29T02:24:22.563Z,0.66
2022-12-29T02:25:46.237Z,0.75
2022-12-29T02:27:08.749Z,0.65
2022-12-29T02:28:38.320Z,0.70
2022-12-29T02:29:42.687Z,0.75
2022-12-29T02:31:04.613Z,0.73
2022-12-29T02:32:41.136Z,0.72
2022-12-29T02:34:18.430Z,0.60
2022-12-29T02:35:24.092Z,0.72
2022-12-29T02:36:45.382Z,0.80
2022-12-29T02:38:09.651Z,0.69
2022-12-29T02:39:34.604Z,0.81
2022-12-29T02:41:07.579Z,0.73
2022-12-29T02:42:25.984Z,0.61
2022-12-29T02:43:40.228Z,0.58
2022-12-29T02:44:55.937Z,0.67
2022-12-29T02:46:16.811Z,0.71
2022-12-29T02:47:39.373Z,0.52
2022-12-29T02:48:49.123Z,0.45
2022-12-29T02:50:03.808Z,0.63
2022-12-29T02:52:58.753Z,0.67
2022-12-29T02:54:22.439Z,0.54
2022-12-29T02:55:28.160Z,0.57
2022-12-29T02:58:52.409Z,0.51
2022-12-29T03:00:21.544Z,0.60
2022-12-29T03:01:39.128Z,0.63
2022-12-29T03:02:48.023Z,0.76
2022-12-29T03:04:06.922Z,0.65
2022-12-29T03:05:21.937Z,0.73
2022-12-29T03:06:25.942Z,0.58
2022-12-29T03:07:45.762Z,0.67
2022-12-29T03:09:02.567Z,0.64
2022-12-29T03:10:24.165Z,0.42
2022-12-29T03:11:51.452Z,0.66
2022-12-29T03:13:18.438Z,0.58
2022-12-29T03:14:45.752Z,0.57
2022-12-29T03:16:01.031Z,0.59
2022-12-29T03:17:13.567Z,0.48
2022-12-29T03:18:23.601Z,0.51
2022-12-29T03:19:37.193Z,0.52
2022-12-29T03:21:02.751Z,0.41
2022-12-29T03:22:33.338Z,0.27
2022-12-29T03:23:58.635Z,0.39
2022-12-29T03:25:11.053Z,0.22
2022-12-29T03:26:24.989Z,0.16
2022-12-29T03:27:31.761Z,0.17
2022-12-29T03:28:38.037Z,0.27
2022-12-29T03:29:47.947Z,0.23
2022-12-29T03:32:16.698Z,0.29
2022-12-29T03:33:28.197Z,0.18
2022-12-29T03:34:38.905Z,0.09
2022-12-29T03:35:43.803Z,-0.01
2022-12-29T03:36:59.716Z,0.12
2022-12-29T03:38:35.403Z,0.02
2022-12-29T03:39:54.662Z,0.08
2022-12-29T03:41:10.346Z,-0.06
2022-12-29T03:42:21.683Z,0.11
2022-12-29T03:43:26.228Z,0.20
2022-12-29T03:44:40.086Z,0.20
2022-12-29T03:45:51.308Z,0.11
2022-12-29T03:46:58.330Z,0.11
2022-12-29T03:48:08.205Z,0.10
2022-12-29T03:49:27.927Z,0.09
2022-12-29T03:50:34.505Z,-0.03
2022-12-29T03:51:51.855Z,-0.24
2022-12-29T03:53:00.650Z,-0.14
2022-12-29T03:54:19.764Z,0.04
2022-12-29T03:55:26.215Z,-0.06
2022-12-29T03:56:54.533Z,-0.11
2022-12-29T03:58:11.998Z,-0.17
2022-12-29T03:59:29.302Z,-0.17
2022-12-29T04:00:41.453Z,-0.04
2022-12-29T04:01:48.826Z,-0.01
2022-12-29T04:03:03.223Z,-0.06
2022-12-29T04:04:14.108Z,-0.10
2022-12-29T04:06:35.599Z,-0.27
2022-12-29T04:07:41.595Z,-0.32
2022-12-29T04:08:56.246Z,-0.22
2022-12-29T04:10:01.842Z,-0.23
2022-12-29T04:11:13.596Z,-0.16
2022-12-29T04:12:20.176Z,-0.23
2022-12-29T04:13:33.720Z,-0.15
2022-12-29T04:14:37.820Z,-0.01
2022-12-29T04:15:41.410Z,-0.14
2022-12-29T04:16:46.567Z,-0.18
2022-12-29T04:17:51.241Z,-0.15
2022-12-29T04:18:54.241Z,-0.10
2022-12-29T04:20:19.735Z,-0.19
2022-12-29T04:21:27.371Z,-0.18
2022-12-29T04:22:33.037Z,-0.11
2022-12-29T04:23:39.882Z,-0.07
2022-12-29T04:24:44.494Z,-0.06
2022-12-29T04:26:02.120Z,-0.16
2022-12-29T04:27:06.946Z,-0.20
2022-12-29T04:28:42.429Z,-0.21
2022-12-29T04:30:10.147Z,-0.06
2022-12-29T04:31:42.993Z,-0.08
2022-12-29T04:34:10.999Z,-0.29
2022-12-29T04:35:19.153Z,-0.34
2022-12-29T04:36:30.417Z,-0.20
2022-12-29T04:37:35.589Z,-0.26
2022-12-29T04:39:04.263Z,-0.42
2022-12-29T04:40:07.102Z,-0.46
2022-12-29T04:41:15.594Z,-0.59
2022-12-29T04:42:19.072Z,-0.55
2022-12-29T04:43:25.900Z,-0.51
2022-12-29T05:17:49.633Z,-0.72
2022-12-29T05:19:41.916Z,-0.88
2022-12-29T05:28:36.842Z,-1.02
2022-12-29T06:35:08.860Z,-0.14
2022-12-29T06:36:27.636Z,-0.12
2022-12-29T06:38:06.345Z,-0.06
2022-12-29T06:39:25.130Z,0.03
2022-12-29T06:41:15.971Z,0.22
2022-12-29T06:43:03.025Z,0.21
2022-12-29T06:44:29.723Z,0.26
2022-12-29T06:47:55.570Z,0.19
2022-12-29T09:04:58.517Z,0.69
2022-12-29T09:06:39.948Z,0.79
2022-12-29T09:08:34.065Z,0.73
2022-12-29T09:09:45.610Z,0.81
2022-12-29T10:22:34.382Z,0.53
2022-12-29T11:23:09.570Z,0.82
2022-12-29T11:34:25.542Z,0.92
2022-12-29T11:37:22.178Z,0.95
2022-12-29T12:34:08.929Z,0.79
2022-12-29T12:41:53.613Z,0.74
2022-12-29T12:43:15.101Z,0.62
2022-12-29T12:44:19.976Z,0.57
2022-12-29T12:45:46.811Z,0.60
2022-12-29T12:46:57.760Z,0.70
2022-12-29T12:48:13.752Z,0.66
2022-12-29T12:49:34.354Z,0.67
2022-12-29T12:51:03.731Z,0.70
2022-12-29T12:52:07.149Z,0.76
2022-12-29T12:53:12.484Z,0.76
2022-12-29T12:54:24.241Z,0.73
2022-12-29T12:55:29.453Z,0.73
2022-12-29T12:56:31.863Z,0.77
2022-12-29T12:58:01.073Z,0.73
2022-12-29T12:59:10.088Z,0.76
2022-12-29T13:00:21.509Z,0.69
2022-12-29T13:01:29.643Z,0.72
2022-12-29T13:02:42.347Z,0.69
2022-12-29T13:04:03.600Z,0.70
2022-12-29T13:05:26.829Z,0.74
2022-12-29T13:06:48.338Z,0.60
2022-12-29T13:08:05.826Z,0.67
2022-12-29T13:09:24.475Z,0.63
2022-12-29T13:10:41.125Z,0.56
2022-12-29T13:11:52.906Z,0.65
2022-12-29T13:13:14.266Z,0.84
2022-12-29T13:14:28.143Z,0.66
2022-12-29T13:15:48.762Z,0.79
2022-12-29T13:17:11.095Z,0.86
2022-12-29T13:18:54.110Z,0.84
2022-12-29T13:20:19.601Z,0.88
2022-12-29T13:21:40.212Z,0.96
2022-12-29T13:22:53.783Z,0.93
2022-12-29T13:24:07.295Z,0.84
2022-12-29T13:27:18.108Z,0.82
2022-12-29T13:28:30.635Z,0.89
2022-12-29T13:30:20.716Z,0.88
2022-12-29T13:31:37.825Z,0.90
2022-12-29T13:32:56.376Z,0.92
2022-12-29T13:34:27.553Z,0.90
2022-12-29T13:35:47.317Z,0.85
2022-12-29T13:37:03.187Z,1.00
2022-12-29T13:38:24.606Z,0.98
2022-12-29T13:39:42.256Z,0.94
2022-12-29T13:40:51.418Z,0.98
2022-12-29T13:41:55.531Z,0.99
2022-12-29T13:43:01.559Z,0.91
2022-12-29T13:44:06.111Z,0.86
2022-12-29T13:45:14.200Z,0.89
2022-12-29T13:46:20.186Z,0.92
2022-12-29T13:47:30.458Z,0.86
2022-12-29T13:48:41.816Z,0.92
2022-12-29T13:49:44.624Z,0.89
2022-12-29T13:50:56.242Z,1.01
2022-12-29T13:52:26.954Z,0.95
2022-12-29T13:53:41.458Z,0.97
2022-12-29T13:55:02.235Z,0.94
2022-12-29T13:56:21.648Z,1.02
2022-12-29T13:57:39.187Z,0.98
2022-12-29T13:59:01.967Z,0.97
2022-12-29T14:00:20.545Z,0.88
2022-12-29T14:03:29.999Z,0.82
2022-12-29T14:05:04.602Z,0.81
2022-12-29T14:06:20.787Z,0.90
2022-12-29T14:07:24.274Z,0.90
2022-12-29T14:08:26.917Z,0.91
2022-12-29T14:09:40.832Z,0.86
2022-12-29T14:10:51.613Z,0.88
2022-12-29T14:11:54.611Z,0.84
2022-12-29T14:13:15.224Z,0.85
2022-12-29T14:14:28.172Z,0.62
2022-12-29T14:15:30.240Z,0.90
2022-12-29T14:16:34.512Z,0.82
2022-12-29T14:17:37.643Z,0.69
2022-12-29T14:18:44.729Z,0.72
2022-12-29T14:19:49.045Z,0.79
2022-12-29T14:21:00.102Z,0.84
2022-12-29T14:22:04.625Z,0.82
2022-12-29T14:23:09.657Z,0.91
2022-12-29T14:24:30.193Z,0.82
2022-12-29T14:27:14.349Z,0.68
2022-12-29T14:28:27.205Z,0.67
2022-12-29T14:29:32.047Z,0.80
2022-12-29T14:30:48.167Z,0.80
2022-12-29T14:31:51.435Z,0.81
2022-12-29T14:33:04.097Z,0.84
2022-12-29T14:34:12.429Z,0.76
2022-12-29T14:35:35.509Z,0.77
2022-12-29T14:36:47.534Z,0.62
2022-12-29T14:38:07.248Z,0.49
2022-12-29T14:39:31.790Z,0.31
2022-12-29T14:40:35.908Z,0.38
2022-12-29T14:41:46.158Z,0.43
2022-12-29T14:42:50.147Z,0.41
2022-12-29T14:44:01.407Z,0.51
2022-12-29T14:45:26.041Z,0.54
2022-12-29T14:48:23.481Z,0.45
2022-12-29T14:49:33.076Z,0.57
2022-12-29T14:50:44.204Z,0.61
2022-12-29T14:51:48.025Z,0.54
2022-12-29T14:53:02.134Z,0.62
2022-12-29T14:54:41.770Z,0.52
2022-12-29T14:55:56.336Z,0.65
2022-12-29T14:57:08.168Z,0.63
2022-12-29T14:58:19.775Z,0.65
2022-12-29T14:59:22.209Z,0.58
2022-12-29T15:00:38.007Z,0.69
2022-12-29T15:01:50.436Z,0.78
2022-12-29T15:03:18.122Z,0.72
2022-12-29T15:04:32.969Z,0.72
2022-12-29T15:05:51.109Z,0.71
2022-12-29T15:09:07.937Z,0.63
2022-12-29T15:10:41.484Z,0.72
2022-12-29T15:12:00.456Z,0.77
2022-12-29T15:13:21.528Z,0.91
2022-12-29T15:15:02.640Z,0.93
2022-12-29T15:16:08.538Z,0.95
2022-12-29T15:17:26.203Z,0.98
2022-12-29T15:18:34.256Z,1.07
2022-12-29T15:19:43.439Z,1.02
2022-12-29T15:20:47.978Z,1.07
2022-12-29T15:23:39.505Z,1.06
2022-12-29T15:24:48.183Z,1.03
2022-12-29T15:26:00.200Z,1.05
2022-12-29T15:27:07.448Z,0.94
2022-12-29T15:28:41.529Z,0.90
2022-12-29T15:29:59.052Z,0.90
2022-12-29T15:31:30.391Z,1.00
2022-12-29T15:32:44.507Z,0.90
2022-12-29T15:33:50.613Z,0.74
2022-12-29T15:34:58.640Z,0.78
2022-12-29T15:36:06.024Z,0.73
2022-12-29T15:37:21.134Z,0.76
2022-12-29T15:38:37.073Z,0.75
2022-12-29T15:39:57.899Z,0.66
2022-12-29T15:42:00.153Z,0.78
2022-12-29T15:43:24.796Z,0.82
2022-12-29T15:44:33.330Z,0.84
2022-12-29T15:45:38.494Z,0.77
2022-12-29T15:46:42.191Z,0.84
2022-12-29T15:47:49.225Z,0.81
2022-12-29T15:48:59.015Z,0.81
2022-12-29T15:50:10.953Z,0.76
2022-12-29T15:51:24.064Z,0.88
2022-12-29T15:52:26.481Z,0.87
2022-12-29T15:53:34.987Z,0.90
2022-12-29T15:54:44.178Z,0.93
2022-12-29T15:56:04.250Z,0.91
2022-12-29T15:57:17.695Z,0.88
2022-12-29T15:58:36.868Z,0.78
2022-12-29T15:59:51.393Z,0.95
2022-12-29T16:01:26.065Z,0.82
2022-12-29T16:02:29.414Z,0.82
2022-12-29T16:03:35.398Z,0.96
2022-12-29T16:05:08.764Z,1.02
2022-12-29T16:06:11.697Z,0.98
2022-12-29T16:07:48.987Z,0.81
2022-12-29T16:09:07.543Z,0.93
2022-12-29T16:10:31.510Z,0.78
2022-12-29T16:11:38.277Z,0.77
2022-12-29T16:12:40.403Z,0.88
2022-12-29T16:13:44.465Z,0.92
2022-12-29T16:14:56.218Z,0.88
2022-12-29T16:16:01.485Z,1.01
2022-12-29T16:17:10.288Z,0.76
2022-12-29T16:18:19.991Z,0.82
2022-12-29T16:19:36.960Z,0.73
2022-12-29T16:20:42.094Z,0.77
2022-12-29T16:21:44.395Z,0.54
2022-12-29T16:22:55.785Z,0.61
2022-12-29T16:24:00.899Z,0.57
2022-12-29T16:25:05.376Z,0.62
2022-12-29T16:26:18.856Z,0.65
2022-12-29T16:27:21.077Z,0.67
2022-12-29T16:28:33.169Z,0.62
2022-12-29T16:29:38.432Z,0.62
2022-12-29T16:30:41.266Z,0.75
2022-12-29T16:31:51.194Z,0.64
2022-12-29T16:32:55.501Z,0.66
2022-12-29T16:34:03.523Z,0.61
2022-12-29T16:35:19.283Z,0.72
2022-12-29T16:36:30.438Z,0.57
2022-12-29T16:37:39.071Z,0.44
2022-12-29T16:38:53.092Z,0.43
2022-12-29T16:40:20.787Z,0.60
2022-12-29T16:41:34.925Z,0.68
2022-12-29T16:42:45.631Z,0.66
2022-12-29T16:44:20.903Z,0.66
2022-12-29T16:45:43.647Z,0.59
2022-12-29T16:47:06.679Z,0.70
2022-12-29T16:48:29.822Z,0.66
2022-12-29T16:49:48.356Z,0.73
2022-12-29T16:51:02.851Z,0.68
2022-12-29T16:52:31.956Z,0.67
2022-12-29T16:53:44.389Z,0.63
2022-12-29T16:54:55.678Z,0.73
2022-12-29T16:56:06.994Z,0.67
2022-12-29T16:57:11.080Z,0.73
2022-12-29T16:58:24.292Z,0.58
2022-12-29T16:59:42.648Z,0.52
2022-12-29T17:03:21.388Z,0.61
2022-12-29T17:04:55.144Z,0.60
2022-12-29T17:09:38.481Z,0.43
2022-12-29T17:11:00.203Z,0.45
2022-12-29T17:12:10.726Z,0.55
2022-12-29T17:13:13.956Z,0.46
2022-12-29T17:14:21.788Z,0.32
2022-12-29T17:15:27.813Z,0.49
2022-12-29T17:16:30.213Z,0.54
2022-12-29T17:17:46.943Z,0.43
2022-12-29T17:18:49.015Z,0.57
2022-12-29T17:19:55.769Z,0.45
2022-12-29T17:20:58.734Z,0.25
2022-12-29T17:22:01.886Z,0.39
2022-12-29T17:23:12.306Z,0.40
2022-12-29T17:24:19.910Z,0.42
2022-12-29T17:25:24.745Z,0.23
2022-12-29T17:26:28.011Z,0.22
2022-12-29T17:27:37.770Z,0.31
2022-12-29T17:28:41.234Z,0.40
2022-12-29T17:29:43.943Z,0.42
2022-12-29T17:30:46.362Z,0.42
2022-12-29T17:31:51.594Z,0.40
2022-12-29T17:32:54.734Z,0.30
2022-12-29T17:34:01.298Z,0.39
2022-12-29T17:35:05.529Z,0.46
2022-12-29T17:36:07.753Z,0.50
2022-12-29T17:37:18.951Z,0.29
2022-12-29T17:38:29.367Z,0.41
2022-12-29T17:39:33.896Z,0.45
2022-12-29T17:40:36.623Z,0.49
2022-12-29T17:41:39.049Z,0.60
2022-12-29T17:42:57.932Z,0.45
2022-12-29T17:44:02.898Z,0.51
2022-12-29T17:45:07.945Z,0.60
2022-12-29T17:46:10.729Z,0.50
2022-12-29T17:47:16.726Z,0.55
2022-12-29T17:48:19.391Z,0.59
2022-12-29T17:49:21.446Z,0.59
2022-12-29T17:50:27.176Z,0.50
2022-12-29T17:51:31.449Z,0.44
2022-12-29T17:52:34.897Z,0.54
2022-12-29T17:53:37.197Z,0.41
2022-12-29T17:55:11.459Z,0.44
2022-12-29T17:57:10.326Z,0.57
2022-12-29T17:59:26.004Z,0.57
2022-12-29T18:04:28.373Z,0.63
2022-12-29T18:50:24.670Z,0.69
2022-12-29T18:52:00.018Z,0.67
2022-12-29T18:55:44.482Z,0.67
2022-12-29T18:58:21.054Z,0.72
2022-12-29T19:06:29.396Z,0.75
2022-12-29T19:09:03.826Z,0.85
2022-12-29T19:27:52.380Z,0.72
2022-12-29T19:44:35.704Z,0.69
2022-12-29T19:50:08.443Z,0.68
2022-12-29T20:06:18.679Z,0.97
2022-12-29T20:13:37.251Z,0.58
2022-12-29T20:18:32.017Z,0.70
2022-12-29T20:20:01.209Z,0.65
2022-12-29T20:21:36.485Z,0.69
2022-12-29T20:22:47.745Z,0.68
2022-12-29T20:24:11.428Z,0.59
2022-12-29T20:29:14.098Z,0.61
2022-12-29T20:33:38.859Z,0.76
2022-12-29T20:35:21.016Z,0.65
2022-12-29T20:36:33.136Z,0.68
2022-12-29T20:38:31.769Z,0.68
2022-12-29T20:39:58.096Z,0.72
2022-12-29T20:41:21.855Z,0.77
2022-12-29T20:42:57.268Z,0.66
2022-12-29T20:44:28.737Z,0.70
2022-12-29T20:45:31.055Z,0.80
2022-12-29T20:47:01.098Z,0.69
2022-12-29T20:48:09.009Z,0.86
2022-12-29T20:49:13.805Z,0.79
2022-12-29T20:50:20.550Z,0.82
2022-12-29T20:52:03.735Z,0.77
2022-12-29T20:53:05.237Z,0.70
2022-12-29T20:54:18.286Z,0.74
2022-12-29T20:55:26.030Z,0.64
2022-12-29T20:56:36.216Z,0.73
2022-12-29T21:00:58.044Z,0.60
2022-12-29T21:05:47.478Z,0.55
2022-12-29T21:19:43.184Z,0.62
2022-12-29T21:21:19.033Z,0.47
2022-12-29T21:23:56.480Z,0.65
2022-12-29T21:32:39.812Z,0.49
2022-12-29T21:39:46.620Z,0.66
2022-12-29T21:41:46.793Z,0.82
2022-12-29T21:46:27.146Z,0.56
2022-12-29T21:53:15.307Z,0.42
2022-12-29T22:12:30.452Z,0.23
2022-12-29T22:15:37.996Z,0.16
2022-12-29T22:29:08.969Z,0.39
2022-12-29T23:20:46.149Z,0.53
2022-12-29T23:22:20.292Z,0.60
2022-12-29T23:26:59.954Z,0.50
2022-12-29T23:55:01.702Z,0.88
